Terminal Aerodrome Forecast
Issued by NWS

Home | Current Version | Previous Version | Text Only | Print | Product List | Glossary On
Versions: 1 2 3 4 5 6 7 8 9 10 11 12 13 14 15 16 17 18 19 20 21
181
FTUS43 KGRR 230535
TAFMKG
TAF
KMKG 230535Z 2306/2406 01005KT 4SM RA BR OVC005
      TEMPO 2306/2310 2SM RA BR OVC003
     FM232000 32010KT 4SM -RA BR OVC005
     FM240200 29012G20KT 6SM -RA BR OVC015=

USA.gov is the U.S. government's official web portal to all federal, state and local government web resources and services.